createdAt,value
2018-03-22T00:01:13.747Z,35.70
2018-03-22T00:03:39.929Z,35.10
2018-03-22T00:06:06.155Z,35.70
2018-03-22T00:08:32.443Z,37.23
2018-03-22T00:10:58.728Z,32.50
2018-03-22T00:13:25.451Z,32.83
2018-03-22T00:15:52.455Z,32.77
2018-03-22T00:18:19.435Z,37.93
2018-03-22T00:20:45.728Z,38.60
2018-03-22T00:23:12.658Z,39.60
2018-03-22T00:25:38.895Z,34.20
2018-03-22T00:28:05.970Z,32.67
2018-03-22T00:30:32.290Z,33.83
2018-03-22T00:33:00.293Z,34.83
2018-03-22T00:35:26.504Z,37.23
2018-03-22T00:37:52.839Z,39.93
2018-03-22T00:40:19.030Z,38.73
2018-03-22T00:42:45.217Z,41.40
2018-03-22T00:45:11.495Z,35.33
2018-03-22T00:47:38.435Z,33.63
2018-03-22T00:50:04.744Z,33.53
2018-03-22T00:52:30.979Z,35.33
2018-03-22T00:54:57.195Z,39.67
2018-03-22T00:57:23.422Z,43.17
2018-03-22T00:59:49.650Z,45.43
2018-03-22T01:02:16.594Z,38.03
2018-03-22T01:04:42.820Z,39.20
2018-03-22T01:07:09.789Z,39.40
2018-03-22T01:09:36.265Z,37.10
2018-03-22T01:12:02.689Z,37.40
2018-03-22T01:14:28.883Z,37.03
2018-03-22T01:16:55.878Z,38.80
2018-03-22T01:19:22.133Z,34.00
2018-03-22T01:21:48.328Z,35.40
2018-03-22T01:24:14.530Z,35.13
2018-03-22T01:26:40.770Z,37.03
2018-03-22T01:29:07.940Z,38.80
2018-03-22T01:31:34.169Z,30.83
2018-03-22T01:34:00.393Z,43.57
2018-03-22T01:36:26.594Z,34.17
2018-03-22T01:38:52.794Z,34.03
2018-03-22T01:41:19.771Z,33.33
2018-03-22T01:43:46.071Z,34.67
2018-03-22T01:46:12.395Z,27.60
2018-03-22T01:48:38.666Z,30.73
2018-03-22T01:51:04.866Z,33.60
2018-03-22T01:53:31.114Z,34.27
2018-03-22T01:55:57.303Z,29.87
2018-03-22T01:58:23.546Z,29.43
2018-03-22T02:00:50.507Z,29.37
2018-03-22T02:03:16.754Z,31.87
2018-03-22T02:05:43.179Z,30.77
2018-03-22T02:08:09.415Z,26.37
2018-03-22T02:10:35.626Z,32.70
2018-03-22T02:13:01.834Z,28.63
2018-03-22T02:15:28.754Z,29.50
2018-03-22T02:17:54.967Z,26.47
2018-03-22T02:20:21.249Z,34.30
2018-03-22T02:22:47.947Z,29.47
2018-03-22T02:25:21.542Z,31.40
2018-03-22T02:27:48.760Z,34.40
2018-03-22T02:30:16.122Z,29.97
2018-03-22T02:32:42.373Z,28.33
2018-03-22T02:35:08.618Z,28.50
2018-03-22T02:37:34.851Z,26.70
2018-03-22T02:40:01.094Z,30.03
2018-03-22T02:42:27.367Z,29.67
2018-03-22T02:44:53.642Z,30.50
2018-03-22T02:47:19.881Z,30.63
2018-03-22T02:49:46.139Z,28.27
2018-03-22T02:52:12.378Z,30.63
2018-03-22T02:54:38.623Z,33.57
2018-03-22T02:57:04.839Z,30.10
2018-03-22T02:59:31.848Z,30.73
2018-03-22T03:01:58.175Z,36.20
2018-03-22T03:04:25.482Z,31.80
2018-03-22T03:06:52.712Z,32.27
2018-03-22T03:09:19.263Z,31.10
2018-03-22T03:11:45.532Z,32.47
2018-03-22T03:14:11.739Z,30.70
2018-03-22T03:16:37.933Z,27.30
2018-03-22T03:19:05.001Z,30.20
2018-03-22T03:21:31.241Z,34.47
2018-03-22T03:23:57.494Z,33.77
2018-03-22T03:26:23.921Z,33.80
2018-03-22T03:28:50.838Z,30.70
2018-03-22T03:31:17.133Z,37.57
2018-03-22T03:33:43.497Z,38.37
2018-03-22T03:36:10.563Z,35.13
2018-03-22T03:38:36.806Z,35.83
2018-03-22T03:41:03.058Z,39.77
2018-03-22T03:43:29.328Z,36.07
2018-03-22T03:45:55.550Z,37.23
2018-03-22T03:48:21.794Z,40.97
2018-03-22T03:50:49.243Z,37.53
2018-03-22T03:53:15.541Z,40.47
2018-03-22T03:55:41.745Z,43.57
2018-03-22T03:58:09.151Z,40.27
2018-03-22T04:00:35.620Z,43.53
2018-03-22T04:03:02.135Z,39.53
2018-03-22T04:05:28.348Z,39.43
2018-03-22T04:07:55.060Z,44.43
2018-03-22T04:10:21.337Z,40.97
2018-03-22T04:12:47.535Z,41.00
2018-03-22T04:15:20.225Z,38.10
2018-03-22T04:17:52.733Z,41.27
2018-03-22T04:20:25.077Z,48.90
2018-03-22T04:22:57.373Z,41.37
2018-03-22T04:25:30.168Z,40.50
2018-03-22T04:28:03.729Z,41.13
2018-03-22T04:30:35.991Z,44.17
2018-03-22T04:33:08.310Z,45.03
2018-03-22T04:35:40.734Z,43.13
2018-03-22T04:38:07.165Z,43.70
2018-03-22T04:40:33.735Z,48.70
2018-03-22T04:43:00.710Z,49.20
2018-03-22T04:45:26.941Z,49.30
2018-03-22T04:47:53.359Z,50.43
2018-03-22T04:50:19.600Z,48.90
2018-03-22T04:52:45.826Z,48.17
2018-03-22T04:55:12.112Z,48.33
2018-03-22T04:57:38.290Z,45.60
2018-03-22T05:00:04.608Z,48.00
2018-03-22T05:02:30.786Z,46.77
2018-03-22T05:04:57.023Z,44.97
2018-03-22T05:07:23.435Z,43.10
2018-03-22T05:09:49.711Z,42.07
2018-03-22T05:12:15.943Z,45.40
2018-03-22T05:14:42.171Z,51.53
2018-03-22T05:17:08.378Z,47.20
2018-03-22T05:19:34.574Z,43.90
2018-03-22T05:22:00.799Z,46.20
2018-03-22T05:24:27.003Z,46.93
2018-03-22T05:26:53.204Z,48.93
2018-03-22T05:29:20.370Z,53.77
2018-03-22T05:31:46.580Z,55.80
2018-03-22T05:34:13.271Z,54.03
2018-03-22T05:36:39.477Z,56.90
2018-03-22T05:39:06.454Z,49.40
2018-03-22T05:41:34.169Z,53.30
2018-03-22T05:44:00.386Z,54.37
2018-03-22T05:46:27.418Z,55.23
2018-03-22T05:48:54.304Z,50.23
2018-03-22T05:51:21.321Z,55.70
2018-03-22T05:53:47.576Z,45.63
2018-03-22T05:56:13.832Z,51.77
2018-03-22T05:58:40.779Z,50.47
2018-03-22T06:01:06.993Z,51.83
2018-03-22T06:03:33.410Z,48.10
2018-03-22T06:05:59.810Z,46.53
2018-03-22T06:08:26.973Z,43.27
2018-03-22T06:10:53.239Z,53.20
2018-03-22T06:13:20.198Z,56.23
2018-03-22T06:15:52.433Z,44.53
2018-03-22T06:18:20.053Z,49.50
2018-03-22T06:20:46.280Z,48.50
2018-03-22T06:23:13.946Z,54.03
2018-03-22T06:25:40.283Z,49.17
2018-03-22T06:28:06.458Z,47.23
2018-03-22T06:30:33.896Z,48.40
2018-03-22T06:33:01.033Z,49.87
2018-03-22T06:35:27.286Z,48.90
2018-03-22T06:37:53.664Z,49.07
2018-03-22T06:40:19.957Z,49.53
2018-03-22T06:42:46.953Z,51.60
2018-03-22T06:45:14.678Z,51.67
2018-03-22T06:47:42.053Z,50.40
2018-03-22T06:50:09.404Z,53.90
2018-03-22T06:52:36.210Z,48.90
2018-03-22T06:55:04.517Z,56.87
2018-03-22T06:57:31.767Z,53.57
2018-03-22T06:59:58.916Z,53.07
2018-03-22T07:02:26.463Z,56.57
2018-03-22T07:04:53.422Z,50.50
2018-03-22T07:07:20.349Z,53.40
2018-03-22T07:09:47.466Z,63.23
2018-03-22T07:12:13.778Z,67.83
2018-03-22T07:14:40.201Z,58.73
2018-03-22T07:17:06.471Z,61.67
2018-03-22T07:19:33.428Z,56.63
2018-03-22T07:21:59.757Z,67.23
2018-03-22T07:24:26.034Z,66.67
2018-03-22T07:26:52.389Z,59.97
2018-03-22T07:29:18.814Z,57.70
2018-03-22T07:31:45.803Z,53.00
2018-03-22T07:34:12.313Z,53.03
2018-03-22T07:36:38.675Z,53.80
2018-03-22T07:39:05.559Z,51.57
2018-03-22T07:41:31.794Z,44.90
2018-03-22T07:44:04.212Z,48.77
2018-03-22T07:46:30.481Z,49.27
2018-03-22T07:48:56.668Z,45.03
2018-03-22T07:51:23.007Z,43.93
2018-03-22T07:53:49.943Z,43.87
2018-03-22T07:56:16.919Z,42.77
2018-03-22T07:58:44.398Z,39.80
2018-03-22T08:01:11.560Z,42.37
2018-03-22T08:03:38.734Z,41.07
2018-03-22T08:06:05.170Z,44.80
2018-03-22T08:08:31.418Z,40.90
2018-03-22T08:10:57.649Z,40.43
2018-03-22T08:13:24.696Z,41.47
2018-03-22T08:15:51.072Z,40.20
2018-03-22T08:18:17.400Z,39.63
2018-03-22T08:20:44.339Z,36.07
2018-03-22T08:23:11.617Z,38.30
2018-03-22T08:25:38.596Z,40.70
2018-03-22T08:28:06.196Z,39.83
2018-03-22T08:30:33.251Z,38.23
2018-03-22T08:33:00.259Z,37.67
2018-03-22T08:35:26.520Z,41.00
2018-03-22T08:37:53.573Z,38.77
2018-03-22T08:40:19.913Z,35.57
2018-03-22T08:42:46.267Z,36.63
2018-03-22T08:45:12.798Z,36.70
2018-03-22T08:47:39.779Z,36.20
2018-03-22T08:50:05.979Z,34.67
2018-03-22T08:52:32.211Z,34.07
2018-03-22T08:54:58.494Z,37.20
2018-03-22T08:57:24.737Z,39.87
2018-03-22T08:59:51.895Z,36.20
2018-03-22T09:02:18.113Z,42.33
2018-03-22T09:04:45.185Z,42.40
2018-03-22T09:07:11.462Z,37.20
2018-03-22T09:09:37.754Z,37.50
2018-03-22T09:12:04.735Z,38.00
2018-03-22T09:14:30.942Z,42.60
2018-03-22T09:16:57.318Z,42.97
2018-03-22T09:19:23.844Z,38.13
2018-03-22T09:21:50.073Z,42.30
2018-03-22T09:24:16.498Z,46.13
2018-03-22T09:26:48.989Z,45.07
2018-03-22T09:29:15.198Z,43.67
2018-03-22T09:31:41.393Z,46.27
2018-03-22T09:34:08.154Z,41.80
2018-03-22T09:36:35.996Z,42.50
2018-03-22T09:39:02.681Z,44.37
2018-03-22T09:41:29.034Z,45.17
2018-03-22T09:43:56.427Z,45.83
2018-03-22T09:46:22.790Z,41.43
2018-03-22T09:48:49.100Z,37.33
2018-03-22T09:51:16.229Z,40.73
2018-03-22T09:53:42.461Z,43.37
2018-03-22T09:56:09.935Z,41.50
2018-03-22T09:58:37.939Z,43.17
2018-03-22T10:01:04.222Z,44.77
2018-03-22T10:03:30.467Z,38.07
2018-03-22T10:05:56.874Z,41.77
2018-03-22T10:08:23.089Z,37.97
2018-03-22T10:10:50.252Z,39.23
2018-03-22T10:13:16.482Z,38.73
2018-03-22T10:15:42.866Z,37.07
2018-03-22T10:18:09.216Z,38.60
2018-03-22T10:20:35.483Z,31.07
2018-03-22T10:23:01.932Z,32.43
2018-03-22T10:25:28.314Z,35.37
2018-03-22T10:27:55.337Z,32.40
2018-03-22T10:30:22.587Z,30.53
2018-03-22T10:32:49.511Z,34.03
2018-03-22T10:35:15.710Z,34.47
2018-03-22T10:37:42.991Z,32.47
2018-03-22T10:40:09.234Z,32.00
2018-03-22T10:42:35.481Z,34.70
2018-03-22T10:45:02.907Z,32.73
2018-03-22T10:47:30.184Z,31.93
2018-03-22T10:49:56.452Z,30.60
2018-03-22T10:52:22.666Z,33.83
2018-03-22T10:54:49.661Z,29.97
2018-03-22T10:57:15.876Z,30.63
2018-03-22T10:59:42.397Z,31.40
2018-03-22T11:02:14.899Z,28.37
2018-03-22T11:04:48.954Z,27.77
2018-03-22T11:07:15.938Z,26.27
2018-03-22T11:09:42.234Z,23.47
2018-03-22T11:12:08.721Z,25.97
2018-03-22T11:14:34.942Z,24.43
2018-03-22T11:17:01.143Z,25.60
2018-03-22T11:19:27.381Z,26.50
2018-03-22T11:21:53.608Z,23.57
2018-03-22T11:24:20.065Z,24.37
2018-03-22T11:26:46.551Z,23.83
2018-03-22T11:29:12.966Z,28.37
2018-03-22T11:31:39.562Z,22.30
2018-03-22T11:34:10.043Z,22.50
2018-03-22T11:36:37.131Z,24.50
2018-03-22T11:39:03.440Z,22.87
2018-03-22T11:41:29.673Z,23.43
2018-03-22T11:43:56.012Z,22.10
2018-03-22T11:46:22.333Z,23.40
2018-03-22T11:48:48.766Z,24.00
2018-03-22T11:51:14.997Z,22.17
2018-03-22T11:53:41.204Z,22.63
2018-03-22T11:56:07.696Z,27.00
2018-03-22T11:58:33.995Z,25.17
2018-03-22T12:01:00.310Z,25.10
2018-03-22T12:03:26.956Z,24.07
2018-03-22T12:05:53.243Z,25.23
2018-03-22T12:08:19.465Z,26.53
2018-03-22T12:10:45.698Z,25.03
2018-03-22T12:13:12.632Z,25.83
2018-03-22T12:15:39.570Z,24.13
2018-03-22T12:18:06.577Z,24.57
2018-03-22T12:20:32.866Z,25.90
2018-03-22T12:22:59.237Z,26.27
2018-03-22T12:25:25.591Z,30.03
2018-03-22T12:27:51.799Z,26.23
2018-03-22T12:30:18.007Z,23.63
2018-03-22T12:32:44.242Z,26.77
2018-03-22T12:35:11.354Z,24.53
2018-03-22T12:37:38.349Z,27.70
2018-03-22T12:40:04.592Z,30.37
2018-03-22T12:42:30.942Z,28.67
2018-03-22T12:44:57.330Z,27.73
2018-03-22T12:47:23.529Z,25.93
2018-03-22T12:49:50.014Z,23.10
2018-03-22T12:52:16.216Z,24.73
2018-03-22T12:54:42.396Z,25.57
2018-03-22T12:57:09.516Z,27.27
2018-03-22T12:59:35.846Z,24.27
2018-03-22T13:02:02.163Z,24.80
2018-03-22T13:04:28.297Z,26.23
2018-03-22T13:06:54.544Z,29.17
2018-03-22T13:09:20.762Z,38.47
2018-03-22T13:11:46.986Z,28.87
2018-03-22T13:14:13.630Z,22.00
2018-03-22T13:16:39.809Z,21.80
2018-03-22T13:19:06.256Z,22.70
2018-03-22T13:21:32.616Z,21.97
2018-03-22T13:23:59.836Z,20.03
2018-03-22T13:26:26.019Z,19.77
2018-03-22T13:28:52.953Z,18.60
2018-03-22T13:31:19.889Z,22.83
2018-03-22T13:33:46.115Z,21.20
2018-03-22T13:36:15.699Z,21.13
2018-03-22T13:38:41.908Z,23.37
2018-03-22T13:41:09.523Z,21.77
2018-03-22T13:43:35.931Z,22.27
2018-03-22T13:46:04.216Z,26.57
2018-03-22T13:48:30.442Z,23.10
2018-03-22T13:50:56.657Z,25.00
2018-03-22T13:53:22.922Z,24.13
2018-03-22T13:55:49.135Z,24.17
2018-03-22T13:58:15.398Z,23.93
2018-03-22T14:00:41.874Z,26.87
2018-03-22T14:03:08.806Z,24.07
2018-03-22T14:05:35.800Z,28.70
2018-03-22T14:08:02.038Z,27.47
2018-03-22T14:10:29.192Z,28.20
2018-03-22T14:12:55.435Z,27.53
2018-03-22T14:15:21.841Z,26.00
2018-03-22T14:17:48.109Z,29.37
2018-03-22T14:20:14.374Z,40.87
2018-03-22T14:22:41.826Z,57.50
2018-03-22T14:25:08.304Z,57.50
2018-03-22T14:27:34.506Z,30.93
2018-03-22T14:30:01.484Z,31.93
2018-03-22T14:32:27.793Z,30.93
2018-03-22T14:34:54.727Z,33.43
2018-03-22T14:37:21.735Z,33.07
2018-03-22T14:39:48.610Z,31.73
2018-03-22T14:42:15.021Z,33.17
2018-03-22T14:44:41.987Z,33.33
2018-03-22T14:47:09.169Z,37.00
2018-03-22T14:49:35.371Z,34.13
2018-03-22T14:52:01.577Z,33.47
2018-03-22T14:54:27.952Z,35.00
2018-03-22T14:56:54.386Z,32.27
2018-03-22T14:59:20.766Z,37.13
2018-03-22T15:01:48.549Z,31.50
2018-03-22T15:04:14.807Z,34.33
2018-03-22T15:06:41.073Z,32.30
2018-03-22T15:09:07.754Z,35.77
2018-03-22T15:11:34.690Z,35.40
2018-03-22T15:14:01.873Z,31.97
2018-03-22T15:16:28.102Z,32.23
2018-03-22T15:18:54.337Z,34.97
2018-03-22T15:21:20.543Z,37.80
2018-03-22T15:23:46.822Z,40.30
2018-03-22T15:26:13.253Z,40.37
2018-03-22T15:28:40.262Z,40.20
2018-03-22T15:31:06.461Z,38.80
2018-03-22T15:33:33.510Z,39.07
2018-03-22T15:36:00.674Z,33.70
2018-03-22T15:38:28.064Z,36.77
2018-03-22T15:40:55.159Z,38.83
2018-03-22T15:43:22.383Z,37.87
2018-03-22T15:45:48.597Z,37.17
2018-03-22T15:48:14.843Z,38.07
2018-03-22T15:50:41.155Z,36.27
2018-03-22T15:53:07.474Z,37.10
2018-03-22T15:55:33.682Z,38.23
2018-03-22T15:57:59.943Z,36.97
2018-03-22T16:00:26.170Z,38.63
2018-03-22T16:02:52.443Z,39.53
2018-03-22T16:05:19.470Z,35.47
2018-03-22T16:07:45.685Z,39.67
2018-03-22T16:10:11.934Z,42.33
2018-03-22T16:12:38.966Z,41.27
2018-03-22T16:15:05.257Z,39.63
2018-03-22T16:17:31.538Z,38.23
2018-03-22T16:19:57.850Z,42.83
2018-03-22T16:22:24.817Z,40.40
2018-03-22T16:24:51.778Z,43.50
2018-03-22T16:27:18.033Z,44.13
2018-03-22T16:29:44.305Z,37.27
2018-03-22T16:32:11.301Z,41.43
2018-03-22T16:34:37.492Z,39.93
2018-03-22T16:37:04.486Z,48.13
2018-03-22T16:39:30.772Z,41.53
2018-03-22T16:41:57.142Z,46.60
2018-03-22T16:44:23.398Z,42.70
2018-03-22T16:46:49.603Z,40.30
2018-03-22T16:49:15.826Z,37.80
2018-03-22T16:51:42.049Z,39.83
2018-03-22T16:54:08.368Z,38.83
2018-03-22T16:56:34.568Z,40.93
2018-03-22T16:59:00.828Z,34.83
2018-03-22T17:01:27.042Z,43.40
2018-03-22T17:03:53.302Z,36.33
2018-03-22T17:06:19.514Z,40.87
2018-03-22T17:08:45.904Z,40.90
2018-03-22T17:11:12.220Z,35.13
2018-03-22T17:13:38.515Z,33.33
2018-03-22T17:16:04.719Z,30.77
2018-03-22T17:18:30.916Z,34.23
2018-03-22T17:20:57.186Z,29.83
2018-03-22T17:23:23.421Z,30.80
2018-03-22T17:25:50.493Z,31.50
2018-03-22T17:28:16.736Z,33.97
2018-03-22T17:30:43.132Z,30.23
2018-03-22T17:33:09.365Z,29.77
2018-03-22T17:35:35.581Z,32.40
2018-03-22T17:38:01.843Z,27.80
2018-03-22T17:40:28.034Z,29.97
2018-03-22T17:42:54.933Z,32.40
2018-03-22T17:45:21.252Z,34.20
2018-03-22T17:47:47.673Z,32.80
2018-03-22T17:50:13.868Z,34.07
2018-03-22T17:52:40.109Z,35.83
2018-03-22T17:55:06.330Z,31.83
2018-03-22T17:57:33.299Z,37.53
2018-03-22T18:00:00.817Z,35.13
2018-03-22T18:02:27.030Z,35.40
2018-03-22T18:04:53.334Z,30.67
2018-03-22T18:07:19.847Z,34.70
2018-03-22T18:09:46.061Z,38.83
2018-03-22T18:12:12.479Z,34.00
2018-03-22T18:14:38.718Z,39.13
2018-03-22T18:17:04.927Z,37.87
2018-03-22T18:19:31.172Z,35.30
2018-03-22T18:21:57.503Z,39.83
2018-03-22T18:24:23.861Z,36.90
2018-03-22T18:26:50.367Z,37.13
2018-03-22T18:29:16.591Z,32.27
2018-03-22T18:31:42.808Z,31.17
2018-03-22T18:34:09.035Z,40.70
2018-03-22T18:36:35.235Z,34.30
2018-03-22T18:39:02.342Z,37.70
2018-03-22T18:41:28.600Z,39.07
2018-03-22T18:43:54.926Z,37.60
2018-03-22T18:46:21.246Z,40.87
2018-03-22T18:48:47.603Z,42.93
2018-03-22T18:51:13.892Z,44.20
2018-03-22T18:53:40.182Z,43.17
2018-03-22T18:56:06.422Z,46.37
2018-03-22T18:58:32.655Z,43.53
2018-03-22T19:00:58.941Z,54.67
2018-03-22T19:03:25.214Z,48.57
2018-03-22T19:05:51.465Z,56.37
2018-03-22T19:08:17.674Z,46.90
2018-03-22T19:10:45.509Z,57.03
2018-03-22T19:13:11.731Z,62.13
2018-03-22T19:15:38.109Z,59.17
2018-03-22T19:18:04.447Z,63.67
2018-03-22T19:20:31.506Z,67.33
2018-03-22T19:22:58.030Z,69.67
2018-03-22T19:25:24.993Z,66.30
2018-03-22T19:27:51.337Z,69.20
2018-03-22T19:30:17.718Z,65.37
2018-03-22T19:32:44.090Z,62.67
2018-03-22T19:35:10.718Z,67.00
2018-03-22T19:37:36.984Z,62.57
2018-03-22T19:40:03.337Z,69.30
2018-03-22T19:42:29.676Z,73.20
2018-03-22T19:44:56.147Z,72.63
2018-03-22T19:47:22.411Z,70.60
2018-03-22T19:49:49.046Z,90.27
2018-03-22T19:52:15.306Z,94.90
2018-03-22T19:54:42.264Z,69.83
2018-03-22T19:57:09.430Z,73.53
2018-03-22T19:59:36.487Z,81.73
2018-03-22T20:02:02.798Z,85.87
2018-03-22T20:04:29.393Z,88.47
2018-03-22T20:06:55.649Z,115.77
2018-03-22T20:09:21.888Z,88.27
2018-03-22T20:11:48.176Z,86.50
2018-03-22T20:14:14.678Z,78.73
2018-03-22T20:16:41.616Z,88.27
2018-03-22T20:19:09.189Z,79.17
2018-03-22T20:21:35.883Z,77.60
2018-03-22T20:24:02.223Z,73.10
2018-03-22T20:26:29.205Z,68.67
2018-03-22T20:28:55.574Z,61.63
2018-03-22T20:31:21.786Z,64.37
2018-03-22T20:33:48.426Z,63.87
2018-03-22T20:36:16.742Z,53.53
2018-03-22T20:38:43.084Z,45.37
2018-03-22T20:41:09.502Z,42.70
2018-03-22T20:43:36.202Z,43.23
2018-03-22T20:46:02.622Z,44.40
2018-03-22T20:48:28.959Z,45.20
2018-03-22T20:50:55.845Z,36.57
2018-03-22T20:53:22.944Z,36.20
2018-03-22T20:55:49.519Z,31.63
2018-03-22T20:58:16.654Z,36.90
2018-03-22T21:00:42.894Z,31.70
2018-03-22T21:03:09.540Z,32.50
2018-03-22T21:05:35.836Z,33.30
2018-03-22T21:08:02.286Z,37.57
2018-03-22T21:10:28.894Z,29.83
2018-03-22T21:12:55.371Z,32.17
2018-03-22T21:15:22.526Z,33.73
2018-03-22T21:17:50.968Z,28.53
2018-03-22T21:20:17.246Z,31.17
2018-03-22T21:22:44.319Z,33.53
2018-03-22T21:25:10.533Z,30.63
2018-03-22T21:27:37.565Z,29.40
2018-03-22T21:30:04.486Z,29.77
2018-03-22T21:32:32.753Z,27.73
2018-03-22T21:35:00.250Z,25.77
2018-03-22T21:37:27.371Z,26.87
2018-03-22T21:39:53.851Z,32.43
2018-03-22T21:42:20.115Z,33.47
2018-03-22T21:44:46.332Z,28.90
2018-03-22T21:47:24.962Z,30.63
2018-03-22T21:49:51.445Z,31.37
2018-03-22T21:52:30.205Z,27.60
2018-03-22T21:54:56.495Z,25.47
2018-03-22T21:57:22.904Z,29.70
2018-03-22T21:59:49.313Z,22.13
2018-03-22T22:02:15.561Z,32.00
2018-03-22T22:04:42.582Z,26.97
2018-03-22T22:07:09.153Z,32.60
2018-03-22T22:09:37.238Z,31.30
2018-03-22T22:12:04.560Z,30.43
2018-03-22T22:14:31.067Z,26.80
2018-03-22T22:16:58.533Z,34.43
2018-03-22T22:19:25.005Z,32.93
2018-03-22T22:21:51.314Z,35.73
2018-03-22T22:24:18.175Z,32.17
2018-03-22T22:26:45.141Z,35.93
2018-03-22T22:29:12.102Z,40.00
2018-03-22T22:31:38.549Z,35.30
2018-03-22T22:34:06.336Z,32.40
2018-03-22T22:36:32.729Z,37.00
2018-03-22T22:38:58.986Z,36.37
2018-03-22T22:41:25.645Z,43.87
2018-03-22T22:43:52.982Z,35.43
2018-03-22T22:46:19.211Z,36.93
2018-03-22T22:48:46.257Z,40.77
2018-03-22T22:51:12.526Z,43.70
2018-03-22T22:53:39.689Z,47.67
2018-03-22T22:56:06.167Z,47.10
2018-03-22T22:58:32.461Z,48.23
2018-03-22T23:00:58.896Z,49.30
2018-03-22T23:03:25.152Z,48.77
2018-03-22T23:05:51.387Z,51.13
2018-03-22T23:08:17.686Z,50.90
2018-03-22T23:10:43.957Z,48.90
2018-03-22T23:13:10.242Z,54.43
2018-03-22T23:15:36.512Z,57.57
2018-03-22T23:18:02.837Z,47.43
2018-03-22T23:20:29.088Z,58.00
2018-03-22T23:22:56.135Z,55.23
2018-03-22T23:25:23.179Z,61.87
2018-03-22T23:27:49.499Z,56.23
2018-03-22T23:30:15.953Z,60.97
2018-03-22T23:32:42.574Z,61.80
2018-03-22T23:35:09.939Z,64.97
2018-03-22T23:37:36.250Z,66.17
2018-03-22T23:40:03.276Z,62.13
2018-03-22T23:42:29.542Z,64.23
2018-03-22T23:44:55.770Z,58.63
2018-03-22T23:47:22.018Z,58.23
2018-03-22T23:49:48.324Z,66.40
2018-03-22T23:52:14.840Z,67.30
2018-03-22T23:54:41.866Z,69.07
2018-03-22T23:57:08.111Z,64.17
2018-03-22T23:59:34.345Z,66.60
